sensor_id;sensor_type;location;lat;lon;timestamp;temperature;humidity
5932;DHT22;2991;49.368;8.528;2022-08-11T00:00:47;30.30;61.10
5932;DHT22;2991;49.368;8.528;2022-08-11T00:03:14;30.20;61.10
5932;DHT22;2991;49.368;8.528;2022-08-11T00:05:45;30.20;61.10
5932;DHT22;2991;49.368;8.528;2022-08-11T00:08:23;30.20;61.10
5932;DHT22;2991;49.368;8.528;2022-08-11T00:10:58;30.20;61.10
5932;DHT22;2991;49.368;8.528;2022-08-11T00:13:38;30.20;61.10
5932;DHT22;2991;49.368;8.528;2022-08-11T00:18:49;30.20;61.20
5932;DHT22;2991;49.368;8.528;2022-08-11T00:21:16;30.20;61.30
5932;DHT22;2991;49.368;8.528;2022-08-11T00:24:12;30.20;61.40
5932;DHT22;2991;49.368;8.528;2022-08-11T00:26:38;30.20;61.40
5932;DHT22;2991;49.368;8.528;2022-08-11T00:29:10;30.20;61.40
5932;DHT22;2991;49.368;8.528;2022-08-11T00:31:36;30.20;61.40
5932;DHT22;2991;49.368;8.528;2022-08-11T00:34:05;30.20;61.40
5932;DHT22;2991;49.368;8.528;2022-08-11T00:36:54;30.10;61.30
5932;DHT22;2991;49.368;8.528;2022-08-11T00:39:22;30.10;61.30
5932;DHT22;2991;49.368;8.528;2022-08-11T00:52:58;30.10;61.40
5932;DHT22;2991;49.368;8.528;2022-08-11T00:58:47;30.10;61.50
5932;DHT22;2991;49.368;8.528;2022-08-11T01:01:33;30.00;61.50
5932;DHT22;2991;49.368;8.528;2022-08-11T01:10:06;30.00;61.60
5932;DHT22;2991;49.368;8.528;2022-08-11T01:15:29;30.00;61.60
5932;DHT22;2991;49.368;8.528;2022-08-11T01:21:13;30.00;61.70
5932;DHT22;2991;49.368;8.528;2022-08-11T01:33:03;29.90;61.80
5932;DHT22;2991;49.368;8.528;2022-08-11T01:36:13;29.90;61.90
5932;DHT22;2991;49.368;8.528;2022-08-11T01:53:14;29.90;62.00
5932;DHT22;2991;49.368;8.528;2022-08-11T01:55:42;29.80;62.00
5932;DHT22;2991;49.368;8.528;2022-08-11T01:58:37;29.80;62.00
5932;DHT22;2991;49.368;8.528;2022-08-11T02:01:26;29.80;62.10
5932;DHT22;2991;49.368;8.528;2022-08-11T02:06:40;29.80;62.10
5932;DHT22;2991;49.368;8.528;2022-08-11T02:09:44;29.80;62.10
5932;DHT22;2991;49.368;8.528;2022-08-11T02:12:49;29.80;62.20
5932;DHT22;2991;49.368;8.528;2022-08-11T02:15:27;29.80;62.20
5932;DHT22;2991;49.368;8.528;2022-08-11T02:18:07;29.70;62.10
5932;DHT22;2991;49.368;8.528;2022-08-11T02:20:48;29.80;62.20
5932;DHT22;2991;49.368;8.528;2022-08-11T02:23:53;29.70;62.20
5932;DHT22;2991;49.368;8.528;2022-08-11T02:26:20;29.70;62.20
5932;DHT22;2991;49.368;8.528;2022-08-11T02:28:55;29.70;62.30
5932;DHT22;2991;49.368;8.528;2022-08-11T02:31:27;29.70;62.30
5932;DHT22;2991;49.368;8.528;2022-08-11T02:48:00;29.60;62.40
5932;DHT22;2991;49.368;8.528;2022-08-11T02:53:35;29.60;62.30
5932;DHT22;2991;49.368;8.528;2022-08-11T02:56:24;29.60;62.40
5932;DHT22;2991;49.368;8.528;2022-08-11T02:59:12;29.60;62.40
5932;DHT22;2991;49.368;8.528;2022-08-11T03:02:10;29.60;62.40
5932;DHT22;2991;49.368;8.528;2022-08-11T03:12:56;29.50;62.60
5932;DHT22;2991;49.368;8.528;2022-08-11T03:19:10;29.60;62.70
5932;DHT22;2991;49.368;8.528;2022-08-11T03:27:51;29.50;62.60
5932;DHT22;2991;49.368;8.528;2022-08-11T03:30:38;29.50;62.60
5932;DHT22;2991;49.368;8.528;2022-08-11T03:33:21;29.50;62.50
5932;DHT22;2991;49.368;8.528;2022-08-11T03:41:39;29.50;62.70
5932;DHT22;2991;49.368;8.528;2022-08-11T03:47:07;29.40;62.70
5932;DHT22;2991;49.368;8.528;2022-08-11T03:49:54;29.50;62.90
5932;DHT22;2991;49.368;8.528;2022-08-11T04:01:40;29.40;62.90
5932;DHT22;2991;49.368;8.528;2022-08-11T04:04:50;29.40;62.90
5932;DHT22;2991;49.368;8.528;2022-08-11T04:16:14;29.30;62.90
5932;DHT22;2991;49.368;8.528;2022-08-11T04:37:48;29.30;63.50
5932;DHT22;2991;49.368;8.528;2022-08-11T04:58:21;29.00;64.20
5932;DHT22;2991;49.368;8.528;2022-08-11T05:04:20;29.00;64.20
5932;DHT22;2991;49.368;8.528;2022-08-11T05:12:54;29.10;64.30
5932;DHT22;2991;49.368;8.528;2022-08-11T05:15:39;29.10;64.20
5932;DHT22;2991;49.368;8.528;2022-08-11T05:18:28;29.10;64.30
5932;DHT22;2991;49.368;8.528;2022-08-11T05:21:13;29.10;64.30
5932;DHT22;2991;49.368;8.528;2022-08-11T05:24:08;29.10;64.40
5932;DHT22;2991;49.368;8.528;2022-08-11T05:26:58;28.90;64.50
5932;DHT22;2991;49.368;8.528;2022-08-11T05:29:48;28.80;66.90
5932;DHT22;2991;49.368;8.528;2022-08-11T05:32:41;28.80;66.50
5932;DHT22;2991;49.368;8.528;2022-08-11T05:35:44;28.90;66.60
5932;DHT22;2991;49.368;8.528;2022-08-11T05:38:17;28.90;66.50
5932;DHT22;2991;49.368;8.528;2022-08-11T05:41:04;28.90;66.20
5932;DHT22;2991;49.368;8.528;2022-08-11T05:43:49;28.90;66.00
5932;DHT22;2991;49.368;8.528;2022-08-11T05:46:41;28.90;65.90
5932;DHT22;2991;49.368;8.528;2022-08-11T05:49:30;28.90;65.90
5932;DHT22;2991;49.368;8.528;2022-08-11T05:52:16;28.90;65.80
5932;DHT22;2991;49.368;8.528;2022-08-11T05:55:05;28.90;65.70
5932;DHT22;2991;49.368;8.528;2022-08-11T05:57:54;28.90;65.80
5932;DHT22;2991;49.368;8.528;2022-08-11T06:00:21;28.90;65.70
5932;DHT22;2991;49.368;8.528;2022-08-11T06:02:52;28.90;65.60
5932;DHT22;2991;49.368;8.528;2022-08-11T06:05:21;28.90;65.80
5932;DHT22;2991;49.368;8.528;2022-08-11T06:07:48;28.90;66.10
5932;DHT22;2991;49.368;8.528;2022-08-11T06:10:37;28.80;66.10
5932;DHT22;2991;49.368;8.528;2022-08-11T06:13:05;28.80;66.10
5932;DHT22;2991;49.368;8.528;2022-08-11T06:15:33;28.80;66.20
5932;DHT22;2991;49.368;8.528;2022-08-11T06:18:10;28.80;66.30
5932;DHT22;2991;49.368;8.528;2022-08-11T06:23:14;28.90;66.20
5932;DHT22;2991;49.368;8.528;2022-08-11T06:25:43;28.90;66.00
5932;DHT22;2991;49.368;8.528;2022-08-11T06:28:09;28.90;65.90
5932;DHT22;2991;49.368;8.528;2022-08-11T06:30:41;28.90;66.00
5932;DHT22;2991;49.368;8.528;2022-08-11T06:33:13;28.90;65.90
5932;DHT22;2991;49.368;8.528;2022-08-11T06:35:56;28.90;65.70
5932;DHT22;2991;49.368;8.528;2022-08-11T06:38:36;29.00;65.90
5932;DHT22;2991;49.368;8.528;2022-08-11T06:41:56;29.00;66.00
5932;DHT22;2991;49.368;8.528;2022-08-11T06:46:40;29.10;65.70
5932;DHT22;2991;49.368;8.528;2022-08-11T06:49:08;29.20;65.70
5932;DHT22;2991;49.368;8.528;2022-08-11T06:51:58;29.20;65.30
5932;DHT22;2991;49.368;8.528;2022-08-11T06:54:26;29.30;65.30
5932;DHT22;2991;49.368;8.528;2022-08-11T06:56:53;29.40;65.10
5932;DHT22;2991;49.368;8.528;2022-08-11T06:59:37;29.50;64.80
5932;DHT22;2991;49.368;8.528;2022-08-11T07:02:51;29.60;64.60
5932;DHT22;2991;49.368;8.528;2022-08-11T07:05:43;29.70;64.30
5932;DHT22;2991;49.368;8.528;2022-08-11T07:14:42;30.10;63.70
5932;DHT22;2991;49.368;8.528;2022-08-11T07:17:31;30.20;64.30
5932;DHT22;2991;49.368;8.528;2022-08-11T07:20:01;30.30;63.50
5932;DHT22;2991;49.368;8.528;2022-08-11T07:22:54;30.40;63.30
5932;DHT22;2991;49.368;8.528;2022-08-11T07:25:41;30.40;63.20
5932;DHT22;2991;49.368;8.528;2022-08-11T07:28:28;30.50;63.20
5932;DHT22;2991;49.368;8.528;2022-08-11T07:31:16;30.60;63.20
5932;DHT22;2991;49.368;8.528;2022-08-11T07:33:49;30.60;63.00
5932;DHT22;2991;49.368;8.528;2022-08-11T07:36:17;30.60;63.00
5932;DHT22;2991;49.368;8.528;2022-08-11T07:38:47;30.70;62.90
5932;DHT22;2991;49.368;8.528;2022-08-11T07:41:17;30.70;62.80
5932;DHT22;2991;49.368;8.528;2022-08-11T07:43:47;30.80;62.70
5932;DHT22;2991;49.368;8.528;2022-08-11T07:46:15;30.80;62.60
5932;DHT22;2991;49.368;8.528;2022-08-11T07:49:02;30.80;62.60
5932;DHT22;2991;49.368;8.528;2022-08-11T07:51:47;30.80;62.60
5932;DHT22;2991;49.368;8.528;2022-08-11T07:54:32;30.90;62.60
5932;DHT22;2991;49.368;8.528;2022-08-11T07:56:59;30.90;62.60
5932;DHT22;2991;49.368;8.528;2022-08-11T07:59:26;30.90;62.50
5932;DHT22;2991;49.368;8.528;2022-08-11T08:02:11;30.90;62.40
5932;DHT22;2991;49.368;8.528;2022-08-11T08:04:57;30.90;62.30
5932;DHT22;2991;49.368;8.528;2022-08-11T08:07:42;31.00;62.50
5932;DHT22;2991;49.368;8.528;2022-08-11T08:10:26;31.00;62.40
5932;DHT22;2991;49.368;8.528;2022-08-11T08:13:11;31.00;62.50
5932;DHT22;2991;49.368;8.528;2022-08-11T08:15:56;31.00;62.50
5932;DHT22;2991;49.368;8.528;2022-08-11T08:18:41;31.00;62.60
5932;DHT22;2991;49.368;8.528;2022-08-11T08:21:07;31.00;62.50
5932;DHT22;2991;49.368;8.528;2022-08-11T08:23:38;30.90;62.40
5932;DHT22;2991;49.368;8.528;2022-08-11T08:26:09;31.00;62.50
5932;DHT22;2991;49.368;8.528;2022-08-11T08:28:56;31.00;62.50
5932;DHT22;2991;49.368;8.528;2022-08-11T08:31:46;31.00;62.50
5932;DHT22;2991;49.368;8.528;2022-08-11T08:34:14;31.00;62.40
5932;DHT22;2991;49.368;8.528;2022-08-11T08:36:47;31.00;62.40
5932;DHT22;2991;49.368;8.528;2022-08-11T08:39:13;31.00;62.50
5932;DHT22;2991;49.368;8.528;2022-08-11T08:41:42;31.00;62.60
5932;DHT22;2991;49.368;8.528;2022-08-11T08:44:09;31.00;62.40
5932;DHT22;2991;49.368;8.528;2022-08-11T08:46:40;31.00;62.40
5932;DHT22;2991;49.368;8.528;2022-08-11T08:49:08;31.00;62.40
5932;DHT22;2991;49.368;8.528;2022-08-11T08:51:37;31.00;62.40
5932;DHT22;2991;49.368;8.528;2022-08-11T08:54:07;31.00;62.50
5932;DHT22;2991;49.368;8.528;2022-08-11T08:56:35;31.00;62.50
5932;DHT22;2991;49.368;8.528;2022-08-11T08:59:04;31.00;62.50
5932;DHT22;2991;49.368;8.528;2022-08-11T09:02:03;31.00;62.50
5932;DHT22;2991;49.368;8.528;2022-08-11T09:04:33;31.00;62.50
5932;DHT22;2991;49.368;8.528;2022-08-11T09:07:06;31.00;62.60
5932;DHT22;2991;49.368;8.528;2022-08-11T09:09:35;31.00;62.60
5932;DHT22;2991;49.368;8.528;2022-08-11T09:12:02;31.00;62.50
5932;DHT22;2991;49.368;8.528;2022-08-11T09:14:35;31.00;62.50
5932;DHT22;2991;49.368;8.528;2022-08-11T09:17:24;31.00;62.50
5932;DHT22;2991;49.368;8.528;2022-08-11T09:19:54;31.00;62.50
5932;DHT22;2991;49.368;8.528;2022-08-11T09:22:26;31.10;62.60
5932;DHT22;2991;49.368;8.528;2022-08-11T09:25:12;31.10;62.70
5932;DHT22;2991;49.368;8.528;2022-08-11T09:27:57;31.10;62.70
5932;DHT22;2991;49.368;8.528;2022-08-11T09:30:24;31.10;62.60
5932;DHT22;2991;49.368;8.528;2022-08-11T09:32:53;31.10;62.60
5932;DHT22;2991;49.368;8.528;2022-08-11T09:35:24;31.20;62.70
5932;DHT22;2991;49.368;8.528;2022-08-11T09:37:58;31.10;62.60
5932;DHT22;2991;49.368;8.528;2022-08-11T09:40:46;31.10;62.60
5932;DHT22;2991;49.368;8.528;2022-08-11T09:43:15;31.20;62.60
5932;DHT22;2991;49.368;8.528;2022-08-11T09:46:00;31.20;62.50
5932;DHT22;2991;49.368;8.528;2022-08-11T09:48:29;31.20;62.50
5932;DHT22;2991;49.368;8.528;2022-08-11T09:50:57;31.20;62.40
5932;DHT22;2991;49.368;8.528;2022-08-11T09:53:26;31.20;62.40
5932;DHT22;2991;49.368;8.528;2022-08-11T09:55:53;31.20;62.40
5932;DHT22;2991;49.368;8.528;2022-08-11T09:58:19;31.20;62.40
5932;DHT22;2991;49.368;8.528;2022-08-11T10:00:48;31.30;62.50
5932;DHT22;2991;49.368;8.528;2022-08-11T10:03:22;31.30;62.40
5932;DHT22;2991;49.368;8.528;2022-08-11T10:05:53;31.30;62.40
5932;DHT22;2991;49.368;8.528;2022-08-11T10:08:41;31.30;62.20
5932;DHT22;2991;49.368;8.528;2022-08-11T10:11:18;31.30;62.30
5932;DHT22;2991;49.368;8.528;2022-08-11T10:13:47;31.30;62.40
5932;DHT22;2991;49.368;8.528;2022-08-11T10:16:34;31.30;62.20
5932;DHT22;2991;49.368;8.528;2022-08-11T10:19:02;31.30;62.00
5932;DHT22;2991;49.368;8.528;2022-08-11T10:21:35;31.30;62.10
5932;DHT22;2991;49.368;8.528;2022-08-11T10:24:02;31.30;62.10
5932;DHT22;2991;49.368;8.528;2022-08-11T10:26:49;31.30;62.00
5932;DHT22;2991;49.368;8.528;2022-08-11T10:29:30;31.30;62.10
5932;DHT22;2991;49.368;8.528;2022-08-11T10:32:22;31.30;62.00
5932;DHT22;2991;49.368;8.528;2022-08-11T10:35:08;31.30;61.90
5932;DHT22;2991;49.368;8.528;2022-08-11T10:37:37;31.40;62.60
5932;DHT22;2991;49.368;8.528;2022-08-11T10:40:06;31.30;61.70
5932;DHT22;2991;49.368;8.528;2022-08-11T10:42:33;31.40;61.90
5932;DHT22;2991;49.368;8.528;2022-08-11T10:45:18;31.40;61.90
5932;DHT22;2991;49.368;8.528;2022-08-11T10:48:05;31.40;62.00
5932;DHT22;2991;49.368;8.528;2022-08-11T10:50:32;31.40;62.00
5932;DHT22;2991;49.368;8.528;2022-08-11T10:53:17;31.40;62.00
5932;DHT22;2991;49.368;8.528;2022-08-11T10:56:03;31.40;61.90
5932;DHT22;2991;49.368;8.528;2022-08-11T10:58:53;31.40;61.90
5932;DHT22;2991;49.368;8.528;2022-08-11T11:01:28;31.40;61.80
5932;DHT22;2991;49.368;8.528;2022-08-11T11:04:00;31.40;61.90
5932;DHT22;2991;49.368;8.528;2022-08-11T11:07:04;31.40;62.00
5932;DHT22;2991;49.368;8.528;2022-08-11T11:09:33;31.40;61.90
5932;DHT22;2991;49.368;8.528;2022-08-11T11:12:14;31.40;61.70
5932;DHT22;2991;49.368;8.528;2022-08-11T11:15:01;31.50;61.90
5932;DHT22;2991;49.368;8.528;2022-08-11T11:18:18;31.50;61.90
5932;DHT22;2991;49.368;8.528;2022-08-11T11:23:22;31.50;61.80
5932;DHT22;2991;49.368;8.528;2022-08-11T11:31:45;31.50;61.90
5932;DHT22;2991;49.368;8.528;2022-08-11T11:37:13;31.50;61.90
5932;DHT22;2991;49.368;8.528;2022-08-11T11:39:42;31.50;61.80
5932;DHT22;2991;49.368;8.528;2022-08-11T11:42:10;31.50;61.90
5932;DHT22;2991;49.368;8.528;2022-08-11T11:44:37;31.50;61.90
5932;DHT22;2991;49.368;8.528;2022-08-11T11:47:04;31.50;62.00
5932;DHT22;2991;49.368;8.528;2022-08-11T11:49:32;31.50;62.00
5932;DHT22;2991;49.368;8.528;2022-08-11T11:51:59;31.50;61.90
5932;DHT22;2991;49.368;8.528;2022-08-11T11:54:30;31.50;61.90
5932;DHT22;2991;49.368;8.528;2022-08-11T11:56:58;31.50;61.80
5932;DHT22;2991;49.368;8.528;2022-08-11T11:59:44;31.50;61.90
5932;DHT22;2991;49.368;8.528;2022-08-11T12:02:28;31.60;61.70
5932;DHT22;2991;49.368;8.528;2022-08-11T12:04:54;31.60;61.90
5932;DHT22;2991;49.368;8.528;2022-08-11T12:07:20;31.50;61.90
5932;DHT22;2991;49.368;8.528;2022-08-11T12:10:07;31.60;61.70
5932;DHT22;2991;49.368;8.528;2022-08-11T12:12:32;31.60;61.90
5932;DHT22;2991;49.368;8.528;2022-08-11T12:15:17;31.60;61.90
5932;DHT22;2991;49.368;8.528;2022-08-11T12:17:44;31.60;61.80
5932;DHT22;2991;49.368;8.528;2022-08-11T12:20:16;31.60;62.00
5932;DHT22;2991;49.368;8.528;2022-08-11T12:22:45;31.60;61.80
5932;DHT22;2991;49.368;8.528;2022-08-11T12:25:30;31.60;61.90
5932;DHT22;2991;49.368;8.528;2022-08-11T12:28:18;31.60;61.80
5932;DHT22;2991;49.368;8.528;2022-08-11T12:30:50;31.60;61.80
5932;DHT22;2991;49.368;8.528;2022-08-11T12:33:17;31.60;61.60
5932;DHT22;2991;49.368;8.528;2022-08-11T12:35:43;31.60;61.60
5932;DHT22;2991;49.368;8.528;2022-08-11T12:38:11;31.60;61.70
5932;DHT22;2991;49.368;8.528;2022-08-11T12:40:38;31.60;61.90
5932;DHT22;2991;49.368;8.528;2022-08-11T12:43:27;31.60;61.70
5932;DHT22;2991;49.368;8.528;2022-08-11T12:46:18;31.60;61.80
5932;DHT22;2991;49.368;8.528;2022-08-11T12:48:46;31.60;61.70
5932;DHT22;2991;49.368;8.528;2022-08-11T12:51:37;31.60;61.70
5932;DHT22;2991;49.368;8.528;2022-08-11T12:57:12;31.70;61.80
5932;DHT22;2991;49.368;8.528;2022-08-11T12:59:59;31.70;61.90
5932;DHT22;2991;49.368;8.528;2022-08-11T13:02:46;31.70;61.80
5932;DHT22;2991;49.368;8.528;2022-08-11T13:05:30;31.70;61.50
5932;DHT22;2991;49.368;8.528;2022-08-11T13:07:59;31.70;61.90
5932;DHT22;2991;49.368;8.528;2022-08-11T13:10:26;31.70;61.90
5932;DHT22;2991;49.368;8.528;2022-08-11T13:13:11;31.70;61.80
5932;DHT22;2991;49.368;8.528;2022-08-11T13:15:39;31.70;61.70
5932;DHT22;2991;49.368;8.528;2022-08-11T13:18:05;31.60;61.70
5932;DHT22;2991;49.368;8.528;2022-08-11T13:20:32;31.70;61.80
5932;DHT22;2991;49.368;8.528;2022-08-11T13:22:59;31.70;62.00
5932;DHT22;2991;49.368;8.528;2022-08-11T13:25:27;31.70;61.50
5932;DHT22;2991;49.368;8.528;2022-08-11T13:27:56;31.60;61.70
5932;DHT22;2991;49.368;8.528;2022-08-11T13:30:27;31.60;62.10
5932;DHT22;2991;49.368;8.528;2022-08-11T13:33:12;31.70;61.90
5932;DHT22;2991;49.368;8.528;2022-08-11T13:35:40;31.60;61.80
5932;DHT22;2991;49.368;8.528;2022-08-11T13:38:07;31.70;61.90
5932;DHT22;2991;49.368;8.528;2022-08-11T13:40:38;31.70;61.90
5932;DHT22;2991;49.368;8.528;2022-08-11T13:43:05;31.70;61.90
5932;DHT22;2991;49.368;8.528;2022-08-11T13:45:32;31.70;62.20
5932;DHT22;2991;49.368;8.528;2022-08-11T13:47:59;31.70;62.00
5932;DHT22;2991;49.368;8.528;2022-08-11T13:50:26;31.70;61.80
5932;DHT22;2991;49.368;8.528;2022-08-11T13:53:14;31.70;62.10
5932;DHT22;2991;49.368;8.528;2022-08-11T13:55:42;31.70;61.70
5932;DHT22;2991;49.368;8.528;2022-08-11T13:58:09;31.70;62.00
5932;DHT22;2991;49.368;8.528;2022-08-11T14:00:36;31.70;61.90
5932;DHT22;2991;49.368;8.528;2022-08-11T14:03:05;31.70;62.00
5932;DHT22;2991;49.368;8.528;2022-08-11T14:05:38;31.60;61.70
5932;DHT22;2991;49.368;8.528;2022-08-11T14:08:09;31.70;62.00
5932;DHT22;2991;49.368;8.528;2022-08-11T14:10:37;31.60;61.70
5932;DHT22;2991;49.368;8.528;2022-08-11T14:13:21;31.60;61.80
5932;DHT22;2991;49.368;8.528;2022-08-11T14:16:07;31.60;62.00
5932;DHT22;2991;49.368;8.528;2022-08-11T14:18:35;31.60;62.00
5932;DHT22;2991;49.368;8.528;2022-08-11T14:21:04;31.70;62.10
5932;DHT22;2991;49.368;8.528;2022-08-11T14:23:51;31.70;61.60
5932;DHT22;2991;49.368;8.528;2022-08-11T14:26:22;31.60;62.10
5932;DHT22;2991;49.368;8.528;2022-08-11T14:28:49;31.60;61.90
5932;DHT22;2991;49.368;8.528;2022-08-11T14:31:15;31.60;62.10
5932;DHT22;2991;49.368;8.528;2022-08-11T14:33:42;31.60;62.10
5932;DHT22;2991;49.368;8.528;2022-08-11T14:36:09;31.60;62.20
5932;DHT22;2991;49.368;8.528;2022-08-11T14:38:36;31.60;61.80
5932;DHT22;2991;49.368;8.528;2022-08-11T14:41:03;31.60;61.90
5932;DHT22;2991;49.368;8.528;2022-08-11T14:43:48;31.60;61.80
5932;DHT22;2991;49.368;8.528;2022-08-11T14:46:33;31.60;61.90
5932;DHT22;2991;49.368;8.528;2022-08-11T14:49:29;31.60;61.70
5932;DHT22;2991;49.368;8.528;2022-08-11T14:51:56;31.60;62.00
5932;DHT22;2991;49.368;8.528;2022-08-11T14:54:28;31.60;62.00
5932;DHT22;2991;49.368;8.528;2022-08-11T14:57:16;31.60;62.00
5932;DHT22;2991;49.368;8.528;2022-08-11T14:59:43;31.60;62.20
5932;DHT22;2991;49.368;8.528;2022-08-11T15:02:10;31.60;61.90
5932;DHT22;2991;49.368;8.528;2022-08-11T15:04:57;31.60;61.50
5932;DHT22;2991;49.368;8.528;2022-08-11T15:07:22;31.60;61.30
5932;DHT22;2991;49.368;8.528;2022-08-11T15:09:58;31.60;61.40
5932;DHT22;2991;49.368;8.528;2022-08-11T15:12:24;31.60;60.90
5932;DHT22;2991;49.368;8.528;2022-08-11T15:14:50;31.60;55.00
5932;DHT22;2991;49.368;8.528;2022-08-11T15:17:35;31.50;54.50
5932;DHT22;2991;49.368;8.528;2022-08-11T15:20:05;31.60;56.60
5932;DHT22;2991;49.368;8.528;2022-08-11T15:22:50;31.60;56.90
5932;DHT22;2991;49.368;8.528;2022-08-11T15:25:35;31.70;57.30
5932;DHT22;2991;49.368;8.528;2022-08-11T15:28:03;31.70;57.40
5932;DHT22;2991;49.368;8.528;2022-08-11T15:30:53;31.70;57.30
5932;DHT22;2991;49.368;8.528;2022-08-11T15:33:39;31.70;57.50
5932;DHT22;2991;49.368;8.528;2022-08-11T15:36:29;31.70;57.00
5932;DHT22;2991;49.368;8.528;2022-08-11T15:39:23;31.70;57.50
5932;DHT22;2991;49.368;8.528;2022-08-11T15:42:03;31.60;56.90
5932;DHT22;2991;49.368;8.528;2022-08-11T15:44:58;31.60;56.60
5932;DHT22;2991;49.368;8.528;2022-08-11T15:47:48;31.60;56.30
5932;DHT22;2991;49.368;8.528;2022-08-11T15:50:24;31.60;56.20
5932;DHT22;2991;49.368;8.528;2022-08-11T15:52:57;31.60;56.10
5932;DHT22;2991;49.368;8.528;2022-08-11T15:55:24;31.60;57.20
5932;DHT22;2991;49.368;8.528;2022-08-11T15:57:52;31.60;57.60
5932;DHT22;2991;49.368;8.528;2022-08-11T16:00:38;31.60;57.50
5932;DHT22;2991;49.368;8.528;2022-08-11T16:03:24;31.60;57.80
5932;DHT22;2991;49.368;8.528;2022-08-11T16:06:11;31.60;58.20
5932;DHT22;2991;49.368;8.528;2022-08-11T16:08:39;31.60;58.40
5932;DHT22;2991;49.368;8.528;2022-08-11T16:11:07;31.60;58.70
5932;DHT22;2991;49.368;8.528;2022-08-11T16:13:35;31.60;58.90
5932;DHT22;2991;49.368;8.528;2022-08-11T16:16:02;31.60;59.20
5932;DHT22;2991;49.368;8.528;2022-08-11T16:18:47;31.60;59.30
5932;DHT22;2991;49.368;8.528;2022-08-11T16:21:16;31.60;55.90
5932;DHT22;2991;49.368;8.528;2022-08-11T16:23:45;31.60;54.90
5932;DHT22;2991;49.368;8.528;2022-08-11T16:26:12;31.70;53.10
5932;DHT22;2991;49.368;8.528;2022-08-11T16:28:39;31.70;53.60
5932;DHT22;2991;49.368;8.528;2022-08-11T16:31:07;31.80;53.20
5932;DHT22;2991;49.368;8.528;2022-08-11T16:33:36;31.80;52.40
5932;DHT22;2991;49.368;8.528;2022-08-11T16:36:08;31.80;52.60
5932;DHT22;2991;49.368;8.528;2022-08-11T16:38:54;31.80;52.70
5932;DHT22;2991;49.368;8.528;2022-08-11T16:41:23;31.80;53.00
5932;DHT22;2991;49.368;8.528;2022-08-11T16:44:13;31.80;53.60
5932;DHT22;2991;49.368;8.528;2022-08-11T16:47:00;31.80;52.60
5932;DHT22;2991;49.368;8.528;2022-08-11T16:49:49;31.80;52.00
5932;DHT22;2991;49.368;8.528;2022-08-11T16:52:16;31.80;52.00
5932;DHT22;2991;49.368;8.528;2022-08-11T16:54:42;31.80;51.80
5932;DHT22;2991;49.368;8.528;2022-08-11T16:57:12;31.80;52.00
5932;DHT22;2991;49.368;8.528;2022-08-11T16:59:59;31.80;52.30
5932;DHT22;2991;49.368;8.528;2022-08-11T17:02:29;31.80;51.70
5932;DHT22;2991;49.368;8.528;2022-08-11T17:05:16;31.80;51.70
5932;DHT22;2991;49.368;8.528;2022-08-11T17:08:02;31.80;52.10
5932;DHT22;2991;49.368;8.528;2022-08-11T17:11:00;31.80;52.00
5932;DHT22;2991;49.368;8.528;2022-08-11T17:13:58;31.80;51.60
5932;DHT22;2991;49.368;8.528;2022-08-11T17:16:33;31.80;52.20
5932;DHT22;2991;49.368;8.528;2022-08-11T17:19:04;31.70;51.50
5932;DHT22;2991;49.368;8.528;2022-08-11T17:22:07;31.70;51.80
5932;DHT22;2991;49.368;8.528;2022-08-11T17:24:45;31.70;52.10
5932;DHT22;2991;49.368;8.528;2022-08-11T17:27:16;31.70;53.10
5932;DHT22;2991;49.368;8.528;2022-08-11T17:29:49;31.70;54.30
5932;DHT22;2991;49.368;8.528;2022-08-11T17:32:18;31.70;53.90
5932;DHT22;2991;49.368;8.528;2022-08-11T17:35:07;31.70;55.10
5932;DHT22;2991;49.368;8.528;2022-08-11T17:37:55;31.70;54.80
5932;DHT22;2991;49.368;8.528;2022-08-11T17:40:22;31.60;55.10
5932;DHT22;2991;49.368;8.528;2022-08-11T17:42:54;31.60;55.50
5932;DHT22;2991;49.368;8.528;2022-08-11T17:45:41;31.60;55.80
5932;DHT22;2991;49.368;8.528;2022-08-11T17:48:28;31.60;55.90
5932;DHT22;2991;49.368;8.528;2022-08-11T17:50:59;31.60;56.20
5932;DHT22;2991;49.368;8.528;2022-08-11T17:53:29;31.60;56.30
5932;DHT22;2991;49.368;8.528;2022-08-11T17:56:14;31.60;56.20
5932;DHT22;2991;49.368;8.528;2022-08-11T17:59:00;31.60;56.30
5932;DHT22;2991;49.368;8.528;2022-08-11T18:01:46;31.60;56.30
5932;DHT22;2991;49.368;8.528;2022-08-11T18:04:14;31.60;56.30
5932;DHT22;2991;49.368;8.528;2022-08-11T18:06:41;31.50;56.50
5932;DHT22;2991;49.368;8.528;2022-08-11T18:09:16;31.50;56.80
5932;DHT22;2991;49.368;8.528;2022-08-11T18:12:02;31.50;56.90
5932;DHT22;2991;49.368;8.528;2022-08-11T18:14:50;31.50;56.90
5932;DHT22;2991;49.368;8.528;2022-08-11T18:17:35;31.50;57.40
5932;DHT22;2991;49.368;8.528;2022-08-11T18:20:20;31.50;57.60
5932;DHT22;2991;49.368;8.528;2022-08-11T18:23:08;31.50;57.70
5932;DHT22;2991;49.368;8.528;2022-08-11T18:25:58;31.50;57.90
5932;DHT22;2991;49.368;8.528;2022-08-11T18:28:46;31.50;58.00
5932;DHT22;2991;49.368;8.528;2022-08-11T18:31:37;31.50;58.10
5932;DHT22;2991;49.368;8.528;2022-08-11T18:34:28;31.40;58.10
5932;DHT22;2991;49.368;8.528;2022-08-11T18:37:17;31.40;58.00
5932;DHT22;2991;49.368;8.528;2022-08-11T18:40:26;31.40;58.10
5932;DHT22;2991;49.368;8.528;2022-08-11T18:43:11;31.40;57.80
5932;DHT22;2991;49.368;8.528;2022-08-11T18:46:01;31.40;58.10
5932;DHT22;2991;49.368;8.528;2022-08-11T18:48:51;31.40;58.30
5932;DHT22;2991;49.368;8.528;2022-08-11T18:51:37;31.40;58.00
5932;DHT22;2991;49.368;8.528;2022-08-11T18:54:23;31.30;58.20
5932;DHT22;2991;49.368;8.528;2022-08-11T18:57:08;31.30;58.40
5932;DHT22;2991;49.368;8.528;2022-08-11T18:59:53;31.30;58.40
5932;DHT22;2991;49.368;8.528;2022-08-11T19:02:39;31.30;58.60
5932;DHT22;2991;49.368;8.528;2022-08-11T19:05:25;31.30;58.60
5932;DHT22;2991;49.368;8.528;2022-08-11T19:08:12;31.30;58.70
5932;DHT22;2991;49.368;8.528;2022-08-11T19:10:57;31.30;58.90
5932;DHT22;2991;49.368;8.528;2022-08-11T19:13:42;31.30;58.80
5932;DHT22;2991;49.368;8.528;2022-08-11T19:16:27;31.30;58.80
5932;DHT22;2991;49.368;8.528;2022-08-11T19:19:13;31.30;58.70
5932;DHT22;2991;49.368;8.528;2022-08-11T19:21:59;31.30;59.00
5932;DHT22;2991;49.368;8.528;2022-08-11T19:24:46;31.30;59.10
5932;DHT22;2991;49.368;8.528;2022-08-11T19:27:31;31.20;59.10
5932;DHT22;2991;49.368;8.528;2022-08-11T19:30:15;31.20;59.30
5932;DHT22;2991;49.368;8.528;2022-08-11T19:33:00;31.20;59.40
5932;DHT22;2991;49.368;8.528;2022-08-11T19:35:45;31.20;59.70
5932;DHT22;2991;49.368;8.528;2022-08-11T19:38:30;31.20;59.90
5932;DHT22;2991;49.368;8.528;2022-08-11T19:41:16;31.20;59.80
5932;DHT22;2991;49.368;8.528;2022-08-11T19:44:01;31.20;59.80
5932;DHT22;2991;49.368;8.528;2022-08-11T19:46:48;31.20;60.00
5932;DHT22;2991;49.368;8.528;2022-08-11T19:49:34;31.20;59.70
5932;DHT22;2991;49.368;8.528;2022-08-11T19:52:19;31.20;59.90
5932;DHT22;2991;49.368;8.528;2022-08-11T19:55:05;31.20;59.80
5932;DHT22;2991;49.368;8.528;2022-08-11T19:57:50;31.20;59.90
5932;DHT22;2991;49.368;8.528;2022-08-11T20:00:35;31.10;59.90
5932;DHT22;2991;49.368;8.528;2022-08-11T20:03:20;31.10;60.00
5932;DHT22;2991;49.368;8.528;2022-08-11T20:06:06;31.10;60.10
5932;DHT22;2991;49.368;8.528;2022-08-11T20:08:55;31.10;60.00
5932;DHT22;2991;49.368;8.528;2022-08-11T20:11:45;31.10;60.10
5932;DHT22;2991;49.368;8.528;2022-08-11T20:14:32;31.10;60.10
5932;DHT22;2991;49.368;8.528;2022-08-11T20:17:18;31.10;60.10
5932;DHT22;2991;49.368;8.528;2022-08-11T20:20:05;31.00;60.00
5932;DHT22;2991;49.368;8.528;2022-08-11T20:22:52;31.00;60.20